createdAt,value
2022-12-13T00:01:23.419Z,15.52
2022-12-13T00:03:55.428Z,16.00
2022-12-13T00:06:23.014Z,16.38
2022-12-13T00:08:50.614Z,15.13
2022-12-13T00:11:18.568Z,14.55
2022-12-13T00:13:50.162Z,15.30
2022-12-13T00:16:19.623Z,16.08
2022-12-13T00:18:47.967Z,14.88
2022-12-13T00:21:16.864Z,15.07
2022-12-13T00:23:44.609Z,13.85
2022-12-13T00:26:16.958Z,15.15
2022-12-13T00:28:44.796Z,14.90
2022-12-13T00:31:53.492Z,15.52
2022-12-13T00:34:00.401Z,15.20
2022-12-13T00:36:28.590Z,14.10
2022-12-13T00:39:02.614Z,15.55
2022-12-13T00:41:34.941Z,14.88
2022-12-13T00:44:03.872Z,14.65
2022-12-13T00:46:32.046Z,14.98
2022-12-13T00:49:00.656Z,14.30
2022-12-13T00:51:29.437Z,13.98
2022-12-13T00:53:57.247Z,13.80
2022-12-13T00:56:26.565Z,15.75
2022-12-13T00:58:54.401Z,15.77
2022-12-13T01:01:26.313Z,14.80
2022-12-13T01:03:54.526Z,14.80
2022-12-13T01:06:26.098Z,15.20
2022-12-13T01:08:53.991Z,15.77
2022-12-13T01:11:21.613Z,15.55
2022-12-13T01:13:49.581Z,15.02
2022-12-13T01:16:18.833Z,14.55
2022-12-13T01:18:46.671Z,15.20
2022-12-13T01:21:16.249Z,16.10
2022-12-13T01:23:43.985Z,17.00
2022-12-13T01:26:13.609Z,16.52
2022-12-13T01:28:41.660Z,16.40
2022-12-13T01:31:12.488Z,16.13
2022-12-13T01:33:40.191Z,16.90
2022-12-13T01:36:15.983Z,17.23
2022-12-13T01:38:43.857Z,17.42
2022-12-13T01:41:19.142Z,16.00
2022-12-13T01:43:47.097Z,16.40
2022-12-13T01:46:15.580Z,16.80
2022-12-13T01:48:49.927Z,14.48
2022-12-13T01:51:18.339Z,16.67
2022-12-13T01:53:46.144Z,15.75
2022-12-13T01:56:19.839Z,17.33
2022-12-13T01:58:51.066Z,17.88
2022-12-13T02:01:18.795Z,16.58
2022-12-13T02:03:47.288Z,17.27
2022-12-13T02:06:17.824Z,17.58
2022-12-13T02:08:47.295Z,17.25
2022-12-13T02:11:15.833Z,17.27
2022-12-13T02:13:43.867Z,17.30
2022-12-13T02:16:23.043Z,17.48
2022-12-13T02:18:50.856Z,17.83
2022-12-13T02:21:35.595Z,17.02
2022-12-13T02:24:21.529Z,17.27
2022-12-13T02:26:58.401Z,17.17
2022-12-13T02:29:44.222Z,16.40
2022-12-13T02:32:19.253Z,16.70
2022-12-13T02:34:54.982Z,17.17
2022-12-13T02:37:23.882Z,17.95
2022-12-13T02:39:57.583Z,17.95
2022-12-13T02:42:35.355Z,19.70
2022-12-13T02:45:08.724Z,18.65
2022-12-13T02:47:38.155Z,19.33
2022-12-13T02:50:06.839Z,19.10
2022-12-13T02:52:34.795Z,17.88
2022-12-13T02:55:07.012Z,18.45
2022-12-13T02:57:36.469Z,18.42
2022-12-13T03:00:07.275Z,19.52
2022-12-13T03:02:57.153Z,18.05
2022-12-13T03:06:18.507Z,17.65
2022-12-13T03:12:25.086Z,16.95
2022-12-13T03:15:06.224Z,17.42
2022-12-13T03:17:36.816Z,15.73
2022-12-13T03:20:12.847Z,17.08
2022-12-13T03:22:54.123Z,17.10
2022-12-13T03:25:32.158Z,16.67
2022-12-13T03:28:02.259Z,16.60
2022-12-13T03:30:31.641Z,17.40
2022-12-13T03:32:59.792Z,18.55
2022-12-13T03:35:35.070Z,18.73
2022-12-13T03:38:21.396Z,15.88
2022-12-13T03:40:55.817Z,17.27
2022-12-13T03:43:23.741Z,18.00
2022-12-13T03:45:53.451Z,17.42
2022-12-13T03:48:22.518Z,16.30
2022-12-13T03:50:51.933Z,17.40
2022-12-13T03:53:23.300Z,16.42
2022-12-13T03:56:01.759Z,14.73
2022-12-13T03:58:35.941Z,18.98
2022-12-13T04:01:06.508Z,18.92
2022-12-13T04:03:34.874Z,18.35
2022-12-13T04:06:02.790Z,20.48
2022-12-13T04:08:30.682Z,16.88
2022-12-13T04:10:58.311Z,17.60
2022-12-13T04:13:34.907Z,19.33
2022-12-13T04:16:02.983Z,20.02
2022-12-13T04:18:30.902Z,19.58
2022-12-13T04:20:58.636Z,19.30
2022-12-13T04:23:26.948Z,20.90
2022-12-13T04:25:54.668Z,19.30
2022-12-13T04:28:23.193Z,19.33
2022-12-13T04:30:53.805Z,20.40
2022-12-13T04:33:22.799Z,16.67
2022-12-13T04:35:50.672Z,19.02
2022-12-13T04:38:18.473Z,22.02
2022-12-13T04:40:46.460Z,20.92
2022-12-13T04:43:14.413Z,21.02
2022-12-13T04:45:42.594Z,20.13
2022-12-13T04:48:12.313Z,20.33
2022-12-13T04:50:39.944Z,21.65
2022-12-13T04:53:07.583Z,19.80
2022-12-13T04:55:35.171Z,21.40
2022-12-13T04:58:02.764Z,22.83
2022-12-13T05:00:30.413Z,20.70
2022-12-13T05:02:58.108Z,22.05
2022-12-13T05:05:25.787Z,23.58
2022-12-13T05:07:53.488Z,27.75
2022-12-13T05:10:34.046Z,29.23
2022-12-13T05:13:05.292Z,30.35
2022-12-13T05:15:33.379Z,26.38
2022-12-13T05:18:10.301Z,26.17
2022-12-13T05:20:39.801Z,26.33
2022-12-13T05:23:07.543Z,23.35
2022-12-13T05:25:37.320Z,22.23
2022-12-13T05:28:26.970Z,23.23
2022-12-13T05:30:57.924Z,22.17
2022-12-13T05:33:28.845Z,19.35
2022-12-13T05:36:01.307Z,23.15
2022-12-13T05:38:30.255Z,22.17
2022-12-13T05:40:58.438Z,21.88
2022-12-13T05:43:42.402Z,23.80
2022-12-13T05:46:14.510Z,22.00
2022-12-13T05:48:42.266Z,22.88
2022-12-13T05:51:12.168Z,24.08
2022-12-13T05:53:48.587Z,22.73
2022-12-13T05:56:22.713Z,22.83
2022-12-13T05:58:54.287Z,22.90
2022-12-13T06:03:51.809Z,21.98
2022-12-13T06:06:20.254Z,24.73
2022-12-13T06:08:47.812Z,23.65
2022-12-13T06:11:30.980Z,24.63
2022-12-13T06:14:00.935Z,22.40
2022-12-13T06:16:29.199Z,23.35
2022-12-13T06:19:03.923Z,22.85
2022-12-13T06:21:43.786Z,22.38
2022-12-13T06:24:23.482Z,24.95
2022-12-13T06:26:52.225Z,24.23
2022-12-13T06:29:24.266Z,23.02
2022-12-13T06:32:01.685Z,24.50
2022-12-13T06:34:32.050Z,25.48
2022-12-13T06:37:00.883Z,22.17
2022-12-13T06:39:33.198Z,21.02
2022-12-13T06:42:02.909Z,21.70
2022-12-13T06:44:30.558Z,20.98
2022-12-13T06:47:11.626Z,23.80
2022-12-13T06:49:42.593Z,22.05
2022-12-13T06:52:12.832Z,24.48
2022-12-13T06:54:41.227Z,24.33
2022-12-13T06:57:09.766Z,21.80
2022-12-13T06:59:37.377Z,20.67
2022-12-13T07:02:06.767Z,21.77
2022-12-13T07:04:52.396Z,21.40
2022-12-13T07:07:20.078Z,21.75
2022-12-13T07:09:47.683Z,21.73
2022-12-13T07:12:15.576Z,24.38
2022-12-13T07:14:43.192Z,23.30
2022-12-13T07:17:11.064Z,24.45
2022-12-13T07:19:38.844Z,26.45
2022-12-13T07:22:06.539Z,24.25
2022-12-13T07:24:34.961Z,23.25
2022-12-13T07:27:03.673Z,23.35
2022-12-13T07:29:32.194Z,24.23
2022-12-13T07:32:01.717Z,21.70
2022-12-13T07:34:30.716Z,21.40
2022-12-13T07:36:58.460Z,20.83
2022-12-13T07:39:26.444Z,22.38
2022-12-13T07:41:57.646Z,21.25
2022-12-13T07:44:25.338Z,20.23
2022-12-13T07:46:53.218Z,21.17
2022-12-13T07:49:21.161Z,21.65
2022-12-13T07:51:49.258Z,21.70
2022-12-13T07:54:17.041Z,20.25
2022-12-13T07:56:44.688Z,21.17
2022-12-13T07:59:13.798Z,23.20
2022-12-13T08:01:41.427Z,21.92
2022-12-13T08:04:10.187Z,22.40
2022-12-13T08:06:38.182Z,21.77
2022-12-13T08:09:06.289Z,21.65
2022-12-13T08:11:35.142Z,17.80
2022-12-13T08:14:03.366Z,19.17
2022-12-13T08:16:31.213Z,17.83
2022-12-13T08:19:03.060Z,19.55
2022-12-13T08:21:57.363Z,17.75
2022-12-13T08:24:27.790Z,18.95
2022-12-13T08:26:57.617Z,20.58
2022-12-13T08:29:32.922Z,18.23
2022-12-13T08:32:09.270Z,17.25
2022-12-13T08:34:37.242Z,17.75
2022-12-13T08:37:05.338Z,17.17
2022-12-13T08:39:37.396Z,17.00
2022-12-13T08:42:18.722Z,20.02
2022-12-13T08:47:24.101Z,17.48
2022-12-13T08:50:03.222Z,18.10
2022-12-13T08:52:38.904Z,17.73
2022-12-13T08:55:10.604Z,17.85
2022-12-13T08:57:39.821Z,16.83
2022-12-13T09:00:09.170Z,17.27
2022-12-13T09:02:38.444Z,19.40
2022-12-13T09:05:07.627Z,18.48
2022-12-13T09:07:36.501Z,18.27
2022-12-13T09:10:25.983Z,18.25
2022-12-13T09:12:53.895Z,16.17
2022-12-13T09:15:33.778Z,18.10
2022-12-13T09:18:04.833Z,16.90
2022-12-13T09:20:41.023Z,15.10
2022-12-13T09:23:23.215Z,17.10
2022-12-13T09:26:05.277Z,16.88
2022-12-13T09:28:35.263Z,16.63
2022-12-13T09:31:13.704Z,18.05
2022-12-13T09:33:42.095Z,16.55
2022-12-13T09:36:12.724Z,20.98
2022-12-13T09:38:40.423Z,16.90
2022-12-13T09:41:20.336Z,18.20
2022-12-13T09:44:00.795Z,18.30
2022-12-13T09:46:34.879Z,16.67
2022-12-13T09:49:22.977Z,18.23
2022-12-13T09:52:11.573Z,19.30
2022-12-13T09:54:48.734Z,17.48
2022-12-13T09:57:34.087Z,18.02
2022-12-13T10:00:04.738Z,19.27
2022-12-13T10:02:51.441Z,17.88
2022-12-13T10:05:34.019Z,19.08
2022-12-13T10:08:22.888Z,19.92
2022-12-13T10:10:51.638Z,17.63
2022-12-13T10:13:43.726Z,18.00
2022-12-13T10:16:37.267Z,18.60
2022-12-13T10:19:39.359Z,17.60
2022-12-13T10:25:00.650Z,17.63
2022-12-13T10:27:41.478Z,16.27
2022-12-13T10:30:11.966Z,15.90
2022-12-13T10:32:55.792Z,18.05
2022-12-13T10:35:27.859Z,17.95
2022-12-13T10:37:57.893Z,16.90
2022-12-13T10:40:37.009Z,17.17
2022-12-13T10:43:18.821Z,17.48
2022-12-13T10:46:00.186Z,17.52
2022-12-13T10:48:38.591Z,16.38
2022-12-13T10:51:09.318Z,16.90
2022-12-13T10:53:47.711Z,17.85
2022-12-13T10:56:22.539Z,17.13
2022-12-13T10:59:13.259Z,17.05
2022-12-13T11:01:42.922Z,16.60
2022-12-13T11:04:29.403Z,19.25
2022-12-13T11:06:58.675Z,17.63
2022-12-13T11:09:38.491Z,19.95
2022-12-13T11:12:19.050Z,20.50
2022-12-13T11:15:43.398Z,20.80
2022-12-13T11:18:35.280Z,22.25
2022-12-13T11:21:03.787Z,21.67
2022-12-13T11:23:40.005Z,20.58
2022-12-13T11:26:17.471Z,19.20
2022-12-13T11:28:58.819Z,16.20
2022-12-13T11:31:36.703Z,18.27
2022-12-13T11:34:22.622Z,20.25
2022-12-13T11:37:16.852Z,18.95
2022-12-13T11:39:53.495Z,19.45
2022-12-13T11:42:40.605Z,20.95
2022-12-13T11:45:33.154Z,22.15
2022-12-13T11:48:29.029Z,20.02
2022-12-13T11:50:57.093Z,20.48
2022-12-13T11:53:25.100Z,21.17
2022-12-13T11:55:55.322Z,21.52
2022-12-13T12:01:27.936Z,21.20
2022-12-13T12:04:13.056Z,22.85
2022-12-13T12:06:46.533Z,19.38
2022-12-13T12:09:15.776Z,19.95
2022-12-13T12:11:51.744Z,20.33
2022-12-13T12:14:43.401Z,19.90
2022-12-13T12:17:13.381Z,20.45
2022-12-13T12:19:43.417Z,20.67
2022-12-13T12:22:48.590Z,20.20
2022-12-13T12:25:30.114Z,20.73
2022-12-13T12:28:14.233Z,21.70
2022-12-13T12:30:47.777Z,21.25
2022-12-13T12:33:27.640Z,21.65
2022-12-13T12:36:08.043Z,21.95
2022-12-13T12:38:52.587Z,20.42
2022-12-13T12:41:24.951Z,21.05
2022-12-13T12:44:20.767Z,20.40
2022-12-13T12:47:28.563Z,18.65
2022-12-13T12:50:13.853Z,18.08
2022-12-13T12:52:48.903Z,18.13
2022-12-13T12:55:16.553Z,18.45
2022-12-13T12:58:09.107Z,18.00
2022-12-13T13:01:08.057Z,17.10
2022-12-13T13:03:36.672Z,18.70
2022-12-13T13:06:13.217Z,17.05
2022-12-13T13:08:47.693Z,21.38
2022-12-13T13:11:24.542Z,20.52
2022-12-13T13:14:26.893Z,16.85
2022-12-13T13:16:55.986Z,14.60
2022-12-13T13:19:32.882Z,16.45
2022-12-13T13:22:01.689Z,17.67
2022-12-13T13:24:31.741Z,18.15
2022-12-13T13:27:10.857Z,20.33
2022-12-13T13:29:43.931Z,20.80
2022-12-13T13:32:11.816Z,23.90
2022-12-13T13:34:45.711Z,28.10
2022-12-13T13:37:22.848Z,20.90
2022-12-13T13:40:31.074Z,16.35
2022-12-13T13:43:05.902Z,13.63
2022-12-13T13:45:50.778Z,14.10
2022-12-13T13:48:55.675Z,12.45
2022-12-13T13:52:23.790Z,12.07
2022-12-13T13:54:48.387Z,11.93
2022-12-13T13:58:08.812Z,11.07
2022-12-13T14:00:48.795Z,10.77
2022-12-13T14:03:44.149Z,11.98
2022-12-13T14:06:22.143Z,11.32
2022-12-13T14:09:27.223Z,9.68
2022-12-13T14:12:01.266Z,9.43
2022-12-13T14:15:05.886Z,7.93
2022-12-13T14:17:52.601Z,6.97
2022-12-13T14:20:46.678Z,7.53
2022-12-13T14:23:52.524Z,6.10
2022-12-13T14:26:51.347Z,5.25
2022-12-13T14:29:27.897Z,3.72
2022-12-13T14:31:55.980Z,4.72
2022-12-13T14:34:29.067Z,4.60
2022-12-13T14:37:06.270Z,4.95
2022-12-13T14:39:34.967Z,5.30
2022-12-13T14:42:04.546Z,5.75
2022-12-13T14:44:34.709Z,6.03
2022-12-13T14:47:09.223Z,7.47
2022-12-13T14:49:39.548Z,5.63
2022-12-13T14:52:10.358Z,7.57
2022-12-13T14:54:50.364Z,4.70
2022-12-13T14:57:28.822Z,6.28
2022-12-13T14:59:58.111Z,9.52
2022-12-13T15:02:32.051Z,11.95
2022-12-13T15:07:50.317Z,5.95
2022-12-13T15:10:22.873Z,7.63
2022-12-13T15:12:52.869Z,5.53
2022-12-13T15:15:35.922Z,8.38
2022-12-13T15:18:27.948Z,7.63
2022-12-13T15:20:59.799Z,7.80
2022-12-13T15:23:41.714Z,8.70
2022-12-13T15:26:28.478Z,6.18
2022-12-13T15:28:59.159Z,8.68
2022-12-13T15:31:27.148Z,10.02
2022-12-13T15:34:00.957Z,9.35
2022-12-13T15:36:29.252Z,4.25
2022-12-13T15:39:04.219Z,9.05
2022-12-13T15:41:37.389Z,7.40
2022-12-13T15:44:16.249Z,7.55
2022-12-13T15:46:46.343Z,6.40
2022-12-13T15:49:52.794Z,7.95
2022-12-13T15:52:20.460Z,8.15
2022-12-13T15:55:20.233Z,7.78
2022-12-13T15:57:57.184Z,7.97
2022-12-13T16:00:30.336Z,6.68
2022-12-13T16:03:12.746Z,7.07
2022-12-13T16:05:51.673Z,6.00
2022-12-13T16:08:30.780Z,8.20
2022-12-13T16:10:58.830Z,8.00
2022-12-13T16:13:29.639Z,9.35
2022-12-13T16:16:08.956Z,10.15
2022-12-13T16:18:54.115Z,10.48
2022-12-13T16:21:23.380Z,15.45
2022-12-13T16:23:52.611Z,10.75
2022-12-13T16:26:26.480Z,9.43
2022-12-13T16:28:55.553Z,11.93
2022-12-13T16:31:25.520Z,10.68
2022-12-13T16:33:53.812Z,14.15
2022-12-13T16:36:21.611Z,9.73
2022-12-13T16:38:51.566Z,13.80
2022-12-13T16:41:19.307Z,12.88
2022-12-13T16:43:50.916Z,9.00
2022-12-13T16:47:17.047Z,13.07
2022-12-13T16:49:17.153Z,12.45
2022-12-13T16:51:48.349Z,14.20
2022-12-13T16:54:18.353Z,13.75
2022-12-13T16:56:46.502Z,13.38
2022-12-13T16:59:16.877Z,10.23
2022-12-13T17:01:45.671Z,13.68
2022-12-13T17:04:20.928Z,14.10
2022-12-13T17:06:54.832Z,12.95
2022-12-13T17:09:23.528Z,10.48
2022-12-13T17:11:51.812Z,15.43
2022-12-13T17:14:19.994Z,14.25
2022-12-13T17:16:48.417Z,14.93
2022-12-13T17:19:17.686Z,11.82
2022-12-13T17:21:45.577Z,12.38
2022-12-13T17:24:15.656Z,14.38
2022-12-13T17:26:53.878Z,9.23
2022-12-13T17:29:24.831Z,14.13
2022-12-13T17:31:55.780Z,12.07
2022-12-13T17:34:23.800Z,13.20
2022-12-13T17:36:51.687Z,10.88
2022-12-13T17:39:20.911Z,12.40
2022-12-13T17:41:54.779Z,14.93
2022-12-13T17:44:24.991Z,12.75
2022-12-13T17:46:54.550Z,15.00
2022-12-13T17:49:24.130Z,14.80
2022-12-13T17:51:57.669Z,15.02
2022-12-13T17:54:25.747Z,16.50
2022-12-13T17:56:53.642Z,14.38
2022-12-13T17:59:21.765Z,14.18
2022-12-13T18:01:52.340Z,11.75
2022-12-13T18:04:20.810Z,17.17
2022-12-13T18:06:51.144Z,13.38
2022-12-13T18:09:19.657Z,15.15
2022-12-13T18:11:50.674Z,11.43
2022-12-13T18:14:18.864Z,13.30
2022-12-13T18:16:47.755Z,16.80
2022-12-13T18:19:15.813Z,11.77
2022-12-13T18:21:43.912Z,12.55
2022-12-13T18:24:14.297Z,12.23
2022-12-13T18:26:44.324Z,11.38
2022-12-13T18:29:12.225Z,9.57
2022-12-13T18:31:40.395Z,12.73
2022-12-13T18:34:08.428Z,11.00
2022-12-13T18:36:36.763Z,11.73
2022-12-13T18:39:04.981Z,8.98
2022-12-13T18:41:33.359Z,15.23
2022-12-13T18:44:06.831Z,11.25
2022-12-13T18:46:36.256Z,13.32
2022-12-13T18:49:05.288Z,12.60
2022-12-13T18:51:33.589Z,12.13
2022-12-13T18:54:01.744Z,14.50
2022-12-13T18:56:29.850Z,12.88
2022-12-13T18:58:58.828Z,12.38
2022-12-13T19:01:28.231Z,14.05
2022-12-13T19:03:56.449Z,11.20
2022-12-13T19:06:25.860Z,11.85
2022-12-13T19:08:55.740Z,14.02
2022-12-13T19:11:24.481Z,14.65
2022-12-13T19:13:52.317Z,11.32
2022-12-13T19:16:21.284Z,13.45
2022-12-13T19:18:49.510Z,11.15
2022-12-13T19:21:19.105Z,12.20
2022-12-13T19:23:55.057Z,10.95
2022-12-13T19:26:26.256Z,9.02
2022-12-13T19:28:58.122Z,10.40
2022-12-13T19:31:32.315Z,13.25
2022-12-13T19:34:06.637Z,12.20
2022-12-13T19:36:34.824Z,11.55
2022-12-13T19:39:03.008Z,10.85
2022-12-13T19:41:33.650Z,12.43
2022-12-13T19:44:06.009Z,11.38
2022-12-13T19:46:34.988Z,15.60
2022-12-13T19:49:02.939Z,10.55
2022-12-13T19:51:37.545Z,13.38
2022-12-13T19:54:10.895Z,12.73
2022-12-13T19:56:38.792Z,11.93
2022-12-13T19:59:07.741Z,15.13
2022-12-13T20:01:35.802Z,13.55
2022-12-13T20:04:04.271Z,11.32
2022-12-13T20:06:32.835Z,13.40
2022-12-13T20:09:01.887Z,9.77
2022-12-13T20:11:38.160Z,10.40
2022-12-13T20:14:05.877Z,8.73
2022-12-13T20:16:34.131Z,11.50
2022-12-13T20:19:02.563Z,10.60
2022-12-13T20:21:30.682Z,11.88
2022-12-13T20:23:59.378Z,11.15
2022-12-13T20:26:28.786Z,9.77
2022-12-13T20:28:56.800Z,12.02
2022-12-13T20:31:27.293Z,9.60
2022-12-13T20:34:00.102Z,12.98
2022-12-13T20:36:31.560Z,12.98
2022-12-13T20:39:00.475Z,13.80
2022-12-13T20:41:29.245Z,11.70
2022-12-13T20:43:58.138Z,9.38
2022-12-13T20:46:26.435Z,8.00
2022-12-13T20:48:56.375Z,12.35
2022-12-13T20:51:26.698Z,10.65
2022-12-13T20:53:54.634Z,9.65
2022-12-13T20:56:24.290Z,11.05
2022-12-13T20:58:52.415Z,9.98
2022-12-13T21:01:26.044Z,10.90
2022-12-13T21:03:56.716Z,13.13
2022-12-13T21:06:24.642Z,10.05
2022-12-13T21:08:52.543Z,10.90
2022-12-13T21:11:30.304Z,10.70
2022-12-13T21:14:22.977Z,9.65
2022-12-13T21:16:55.963Z,10.32
2022-12-13T21:19:25.994Z,9.38
2022-12-13T21:21:54.610Z,10.77
2022-12-13T21:24:23.959Z,11.63
2022-12-13T21:26:52.271Z,10.02
2022-12-13T21:29:20.358Z,10.20
2022-12-13T21:31:50.148Z,9.27
2022-12-13T21:34:18.218Z,7.97
2022-12-13T21:36:47.257Z,8.30
2022-12-13T21:39:23.055Z,6.65
2022-12-13T21:41:50.801Z,7.85
2022-12-13T21:44:20.673Z,8.88
2022-12-13T21:47:11.808Z,8.73
2022-12-13T21:49:48.319Z,9.15
2022-12-13T21:52:20.964Z,9.18
2022-12-13T21:54:52.890Z,9.05
2022-12-13T21:57:46.453Z,7.75
2022-12-13T22:00:15.337Z,7.95
2022-12-13T22:02:44.152Z,9.02
2022-12-13T22:05:12.028Z,5.93
2022-12-13T22:07:39.936Z,5.68
2022-12-13T22:10:08.069Z,7.82
2022-12-13T22:12:40.255Z,7.63
2022-12-13T22:15:10.637Z,7.18
2022-12-13T22:17:40.511Z,8.57
2022-12-13T22:20:11.226Z,7.63
2022-12-13T22:22:39.523Z,6.32
2022-12-13T22:25:10.840Z,7.53
2022-12-13T22:27:39.569Z,8.38
2022-12-13T22:30:11.451Z,6.20
2022-12-13T22:32:43.627Z,6.03
2022-12-13T22:35:14.845Z,6.20
2022-12-13T22:37:42.633Z,6.15
2022-12-13T22:40:12.438Z,6.10
2022-12-13T22:42:40.241Z,6.65
2022-12-13T22:45:08.366Z,6.22
2022-12-13T22:47:36.387Z,8.85
2022-12-13T22:50:04.168Z,8.50
2022-12-13T22:52:34.315Z,6.10
2022-12-13T22:55:02.608Z,8.27
2022-12-13T22:57:30.703Z,9.68
2022-12-13T23:00:00.443Z,8.35
2022-12-13T23:02:28.238Z,9.20
2022-12-13T23:04:56.177Z,10.98
2022-12-13T23:07:24.040Z,8.55
2022-12-13T23:09:51.939Z,9.10
2022-12-13T23:12:38.634Z,9.07
2022-12-13T23:15:07.388Z,8.77
2022-12-13T23:17:35.475Z,10.52
2022-12-13T23:20:04.678Z,11.23
2022-12-13T23:22:35.020Z,9.48
2022-12-13T23:25:05.944Z,7.75
2022-12-13T23:27:36.852Z,10.23
2022-12-13T23:30:08.584Z,11.90
2022-12-13T23:35:07.734Z,13.40
2022-12-13T23:40:04.203Z,10.20
2022-12-13T23:42:32.298Z,11.80
2022-12-13T23:45:00.196Z,14.10
2022-12-13T23:47:28.823Z,13.35
2022-12-13T23:49:57.947Z,13.68
2022-12-13T23:52:33.218Z,10.30
2022-12-13T23:55:07.845Z,13.05
